Terminal Aerodrome Forecast
Issued by NWS

Home | Current Version | Previous Version | Text Only | Print | Product List | Glossary On
Versions: 1 2 3 4 5 6 7 8 9 10 11 12 13 14 15 16 17 18 19 20 21 22 23 24 25 26 27 28 29 30 31 32 33
000
FTUS45 KBOU 210139 AAA
TAFBJC
TAF AMD
KBJC 210139Z 2102/2124 VRB03KT P6SM BKN080
     FM210200 36006KT P6SM SCT060 BKN080
     FM210800 36006KT P6SM VCSH BKN060 OVC100
     FM211500 VRB04KT P6SM SCT035 OVC050 PROB30 2118/2124 -SHRA
      BKN035=

USA.gov is the U.S. government's official web portal to all federal, state and local government web resources and services.